createdAt,value
2022-12-23T00:01:45.759Z,95917.31
2022-12-23T00:04:12.238Z,95924.94
2022-12-23T00:06:38.689Z,95919.84
2022-12-23T00:09:05.178Z,95913.88
2022-12-23T00:11:31.831Z,95908.81
2022-12-23T00:14:21.688Z,95896.06
2022-12-23T00:16:50.643Z,95899.50
2022-12-23T00:19:17.298Z,95893.53
2022-12-23T00:21:43.689Z,95889.28
2022-12-23T00:24:11.903Z,95888.41
2022-12-23T00:26:39.324Z,95881.66
2022-12-23T00:29:05.778Z,95879.09
2022-12-23T00:31:32.333Z,95873.13
2022-12-23T00:33:58.743Z,95864.69
2022-12-23T00:36:28.255Z,95863.00
2022-12-23T00:39:14.721Z,95864.66
2022-12-23T00:42:00.006Z,95863.81
2022-12-23T00:44:26.751Z,95863.78
2022-12-23T00:46:53.268Z,95864.63
2022-12-23T00:49:39.331Z,95864.66
2022-12-23T00:52:09.359Z,95865.47
2022-12-23T00:54:35.806Z,95856.13
2022-12-23T00:57:02.789Z,95855.28
2022-12-23T00:59:29.316Z,95851.06
2022-12-23T01:02:14.594Z,95844.28
2022-12-23T01:04:59.744Z,95851.06
2022-12-23T01:07:27.267Z,95857.84
2022-12-23T01:09:53.722Z,95852.75
2022-12-23T01:12:20.170Z,95848.50
2022-12-23T01:14:46.603Z,95856.97
2022-12-23T01:17:13.437Z,95854.41
2022-12-23T01:19:39.890Z,95847.59
2022-12-23T01:22:06.457Z,95851.88
2022-12-23T01:24:33.306Z,95853.56
2022-12-23T01:27:00.639Z,95854.34
2022-12-23T01:29:27.084Z,95844.22
2022-12-23T01:31:53.623Z,95844.22
2022-12-23T01:34:20.074Z,95842.50
2022-12-23T01:36:46.548Z,95844.22
2022-12-23T01:39:13.001Z,95842.50
2022-12-23T01:41:58.957Z,95837.44
2022-12-23T01:45:02.390Z,95846.72
2022-12-23T01:47:52.731Z,95833.97
2022-12-23T01:50:33.049Z,95849.25
2022-12-23T01:53:07.984Z,95844.13
2022-12-23T01:55:40.975Z,95842.44
2022-12-23T01:58:30.545Z,95844.13
2022-12-23T02:01:16.731Z,95844.13
2022-12-23T02:03:46.595Z,95842.41
2022-12-23T02:06:44.823Z,95849.19
2022-12-23T02:09:17.057Z,95847.47
2022-12-23T02:12:01.647Z,95843.28
2022-12-23T02:15:02.137Z,95843.25
2022-12-23T02:17:35.323Z,95850.03
2022-12-23T02:20:04.691Z,95850.03
2022-12-23T02:22:31.027Z,95850.09
2022-12-23T02:25:31.200Z,95854.34
2022-12-23T02:28:11.072Z,95845.88
2022-12-23T02:30:48.363Z,95845.88
2022-12-23T02:33:41.181Z,95851.03
2022-12-23T02:36:26.343Z,95855.22
2022-12-23T02:39:11.846Z,95850.97
2022-12-23T02:42:06.174Z,95849.28
2022-12-23T02:44:40.533Z,95844.19
2022-12-23T02:47:19.228Z,95844.19
2022-12-23T02:49:53.206Z,95851.81
2022-12-23T02:52:23.990Z,95845.88
2022-12-23T02:54:54.207Z,95839.94
2022-12-23T02:57:27.152Z,95842.50
2022-12-23T02:59:55.892Z,95842.50
2022-12-23T03:02:22.501Z,95832.31
2022-12-23T03:04:49.055Z,95822.97
2022-12-23T03:07:20.985Z,95835.69
2022-12-23T03:10:01.328Z,95826.31
2022-12-23T03:12:36.867Z,95834.78
2022-12-23T03:15:42.534Z,95830.50
2022-12-23T03:18:23.459Z,95827.97
2022-12-23T03:21:01.705Z,95835.63
2022-12-23T03:23:35.542Z,95827.13
2022-12-23T03:26:09.463Z,95824.56
2022-12-23T03:28:43.261Z,95823.75
2022-12-23T03:31:15.885Z,95823.75
2022-12-23T03:33:50.936Z,95826.31
2022-12-23T03:36:26.380Z,95826.31
2022-12-23T03:38:55.427Z,95826.31
2022-12-23T03:41:28.673Z,95823.78
2022-12-23T03:44:02.326Z,95819.53
2022-12-23T03:46:38.960Z,95818.66
2022-12-23T03:49:27.230Z,95823.81
2022-12-23T03:51:59.629Z,95827.22
2022-12-23T03:54:33.009Z,95822.97
2022-12-23T03:57:07.749Z,95823.78
2022-12-23T03:59:42.262Z,95824.66
2022-12-23T04:02:32.781Z,95829.72
2022-12-23T04:05:20.581Z,95832.28
2022-12-23T04:07:53.093Z,95831.44
2022-12-23T04:10:21.347Z,95829.75
2022-12-23T04:12:48.571Z,95830.63
2022-12-23T04:15:23.287Z,95834.03
2022-12-23T04:17:51.533Z,95835.75
2022-12-23T04:20:18.322Z,95841.75
2022-12-23T04:22:46.052Z,95839.16
2022-12-23T04:25:14.273Z,95836.59
2022-12-23T04:27:41.352Z,95840.00
2022-12-23T04:30:10.442Z,95841.72
2022-12-23T04:32:37.071Z,95845.09
2022-12-23T04:35:04.076Z,95845.13
2022-12-23T04:37:30.617Z,95845.97
2022-12-23T04:39:58.031Z,95839.97
2022-12-23T04:42:24.413Z,95840.81
2022-12-23T04:44:50.805Z,95840.88
2022-12-23T04:47:17.205Z,95842.56
2022-12-23T04:49:43.653Z,95847.66
2022-12-23T04:52:10.123Z,95843.41
2022-12-23T04:54:40.528Z,95841.66
2022-12-23T04:57:10.387Z,95846.78
2022-12-23T04:59:36.764Z,95842.56
2022-12-23T05:02:03.341Z,95847.63
2022-12-23T05:04:30.013Z,95845.06
2022-12-23T05:06:56.413Z,95849.31
2022-12-23T05:09:22.899Z,95842.53
2022-12-23T05:11:49.315Z,95834.91
2022-12-23T05:14:15.652Z,95852.69
2022-12-23T05:16:42.172Z,95852.72
2022-12-23T05:19:08.835Z,95852.75
2022-12-23T05:21:35.175Z,95854.47
2022-12-23T05:24:01.606Z,95854.44
2022-12-23T05:26:28.134Z,95853.66
2022-12-23T05:28:54.902Z,95851.94
2022-12-23T05:31:21.369Z,95854.53
2022-12-23T05:33:47.738Z,95860.47
2022-12-23T05:36:14.310Z,95860.50
2022-12-23T05:38:40.837Z,95863.03
2022-12-23T05:41:07.669Z,95872.41
2022-12-23T05:43:34.143Z,95882.59
2022-12-23T05:46:00.765Z,95882.59
2022-12-23T05:48:27.208Z,95875.81
2022-12-23T05:50:54.389Z,95875.81
2022-12-23T05:53:21.533Z,95880.06
2022-12-23T05:55:48.430Z,95877.50
2022-12-23T05:58:14.901Z,95880.88
2022-12-23T06:00:41.549Z,95874.13
2022-12-23T06:03:08.455Z,95885.16
2022-12-23T06:05:37.659Z,95883.50
2022-12-23T06:08:04.345Z,95878.53
2022-12-23T06:10:30.959Z,95879.41
2022-12-23T06:12:57.424Z,95887.06
2022-12-23T06:15:24.078Z,95881.13
2022-12-23T06:17:50.556Z,95892.16
2022-12-23T06:20:20.670Z,95895.53
2022-12-23T06:22:48.244Z,95895.56
2022-12-23T06:25:15.097Z,95898.16
2022-12-23T06:27:41.457Z,95894.78
2022-12-23T06:30:08.560Z,95902.41
2022-12-23T06:32:38.546Z,95906.69
2022-12-23T06:35:06.328Z,95906.66
2022-12-23T06:37:32.675Z,95914.28
2022-12-23T06:39:59.012Z,95924.53
2022-12-23T06:42:26.563Z,95920.34
2022-12-23T06:44:52.909Z,95927.16
2022-12-23T06:47:19.364Z,95930.59
2022-12-23T06:49:45.739Z,95938.25
2022-12-23T06:52:12.112Z,95931.50
2022-12-23T06:54:38.463Z,95930.66
2022-12-23T06:57:04.943Z,95941.69
2022-12-23T06:59:32.337Z,95940.03
2022-12-23T07:01:58.858Z,95951.09
2022-12-23T07:04:25.303Z,95944.31
2022-12-23T07:06:51.694Z,95952.00
2022-12-23T07:09:18.199Z,95952.84
2022-12-23T07:11:44.784Z,95946.06
2022-12-23T07:14:11.613Z,95955.41
2022-12-23T07:16:38.023Z,95964.78
2022-12-23T07:19:04.745Z,95962.25
2022-12-23T07:21:31.171Z,95973.28
2022-12-23T07:23:57.577Z,95965.69
2022-12-23T07:26:24.183Z,95952.94
2022-12-23T07:28:50.554Z,95973.38
2022-12-23T07:31:17.045Z,95974.22
2022-12-23T07:33:43.526Z,95977.69
2022-12-23T07:36:10.108Z,95975.16
2022-12-23T07:38:40.694Z,95989.59
2022-12-23T07:41:08.053Z,95992.16
2022-12-23T07:43:34.612Z,96000.69
2022-12-23T07:46:06.845Z,96006.66
2022-12-23T07:48:33.308Z,95999.00
2022-12-23T07:51:03.954Z,96007.50
2022-12-23T07:53:30.794Z,96010.06
2022-12-23T07:55:57.341Z,96010.03
2022-12-23T07:58:24.155Z,96002.41
2022-12-23T08:00:50.547Z,96007.50
2022-12-23T08:03:17.215Z,96002.41
2022-12-23T08:05:43.831Z,96004.97
2022-12-23T08:08:10.343Z,96007.50
2022-12-23T08:10:39.207Z,96015.16
2022-12-23T08:13:09.221Z,96016.88
2022-12-23T08:15:35.604Z,96010.06
2022-12-23T08:18:02.042Z,96011.78
2022-12-23T08:20:28.390Z,96011.75
2022-12-23T08:22:55.265Z,96016.88
2022-12-23T08:25:21.667Z,96024.56
2022-12-23T08:27:48.101Z,96022.84
2022-12-23T08:30:14.560Z,96018.59
2022-12-23T08:32:40.898Z,96022.00
2022-12-23T08:35:07.792Z,96030.50
2022-12-23T08:37:34.171Z,96024.56
2022-12-23T08:40:00.638Z,96025.38
2022-12-23T08:42:27.041Z,96018.59
2022-12-23T08:44:53.390Z,96030.50
2022-12-23T08:47:19.727Z,96032.22
2022-12-23T08:49:47.929Z,96026.25
2022-12-23T08:52:14.421Z,96033.91
2022-12-23T08:54:40.789Z,96035.63
2022-12-23T08:57:07.466Z,96040.72
2022-12-23T08:59:33.817Z,96046.69
2022-12-23T09:02:02.056Z,96050.09
2022-12-23T09:04:28.657Z,96055.19
2022-12-23T09:06:55.151Z,96065.41
2022-12-23T09:09:21.573Z,96071.38
2022-12-23T09:11:49.203Z,96067.97
2022-12-23T09:14:15.702Z,96078.19
2022-12-23T09:16:42.123Z,96081.59
2022-12-23T09:19:08.806Z,96070.53
2022-12-23T09:21:35.319Z,96073.06
2022-12-23T09:24:01.749Z,96064.56
2022-12-23T09:26:30.653Z,96066.28
2022-12-23T09:28:57.600Z,96071.41
2022-12-23T09:31:26.698Z,96064.56
2022-12-23T09:33:55.797Z,96064.59
2022-12-23T09:36:23.473Z,96060.31
2022-12-23T09:38:56.625Z,96062.03
2022-12-23T09:41:34.384Z,96062.88
2022-12-23T09:44:35.033Z,96059.47
2022-12-23T09:47:04.787Z,96064.56
2022-12-23T09:49:33.650Z,96073.09
2022-12-23T09:52:05.539Z,96067.13
2022-12-23T09:54:48.377Z,96074.78
2022-12-23T09:57:36.206Z,96069.66
2022-12-23T10:00:10.575Z,96070.50
2022-12-23T10:02:45.186Z,96062.88
2022-12-23T10:05:40.653Z,96060.28
2022-12-23T10:08:14.297Z,96062.00
2022-12-23T10:10:52.740Z,96067.09
2022-12-23T10:13:27.855Z,96070.53
2022-12-23T10:15:57.788Z,96061.16
2022-12-23T10:18:39.261Z,96062.03
2022-12-23T10:21:24.678Z,96067.97
2022-12-23T10:23:53.856Z,96059.47
2022-12-23T10:26:24.042Z,96051.81
2022-12-23T10:28:57.283Z,96052.63
2022-12-23T10:31:40.181Z,96050.94
2022-12-23T10:34:17.628Z,96048.38
2022-12-23T10:36:52.591Z,96042.44
2022-12-23T10:39:37.298Z,96050.94
2022-12-23T10:42:17.873Z,96044.97
2022-12-23T10:44:58.694Z,96040.72
2022-12-23T10:47:48.487Z,96037.31
2022-12-23T10:50:50.166Z,96036.44
2022-12-23T10:53:39.380Z,96018.56
2022-12-23T10:56:07.364Z,96030.47
2022-12-23T10:58:43.274Z,96027.94
2022-12-23T11:01:18.963Z,96022.81
2022-12-23T11:04:11.499Z,96017.72
2022-12-23T11:06:42.685Z,96014.28
2022-12-23T11:09:20.068Z,96010.00
2022-12-23T11:11:53.331Z,96009.16
2022-12-23T11:14:40.038Z,96015.94
2022-12-23T11:17:30.217Z,96022.75
2022-12-23T11:20:13.000Z,96020.19
2022-12-23T11:22:54.103Z,96032.97
2022-12-23T11:25:39.113Z,96024.44
2022-12-23T11:28:11.620Z,96024.44
2022-12-23T11:30:50.356Z,96015.91
2022-12-23T11:33:32.623Z,96023.56
2022-12-23T11:36:08.503Z,96019.28
2022-12-23T11:38:46.960Z,96015.00
2022-12-23T11:41:25.057Z,96016.69
2022-12-23T11:44:01.428Z,96011.59
2022-12-23T11:46:31.908Z,96008.13
2022-12-23T11:49:17.308Z,96003.03
2022-12-23T11:52:02.534Z,96003.06
2022-12-23T11:54:29.464Z,95991.13
2022-12-23T11:56:56.335Z,95997.94
2022-12-23T11:59:27.476Z,95997.06
2022-12-23T12:01:54.532Z,96005.59
2022-12-23T12:04:24.383Z,95996.25
2022-12-23T12:06:56.382Z,95997.06
2022-12-23T12:09:24.472Z,95985.97
2022-12-23T12:11:57.229Z,95984.28
2022-12-23T12:14:33.880Z,95981.75
2022-12-23T12:17:12.887Z,95991.09
2022-12-23T12:19:59.693Z,95992.78
2022-12-23T12:22:41.292Z,95980.00
2022-12-23T12:25:22.031Z,95982.59
2022-12-23T12:28:01.852Z,95974.94
2022-12-23T12:30:39.337Z,95980.06
2022-12-23T12:33:16.000Z,95982.56
2022-12-23T12:35:53.602Z,95977.50
2022-12-23T12:38:32.619Z,95967.25
2022-12-23T12:41:07.572Z,95963.84
2022-12-23T12:44:10.601Z,95958.72
2022-12-23T12:46:44.856Z,95952.75
2022-12-23T12:49:38.341Z,95957.91
2022-12-23T12:52:15.787Z,95957.06
2022-12-23T12:54:54.304Z,95946.84
2022-12-23T12:57:23.795Z,95950.22
2022-12-23T12:59:55.550Z,95952.81
2022-12-23T13:02:52.030Z,95942.59
2022-12-23T13:05:54.497Z,95934.06
2022-12-23T13:08:34.088Z,95935.78
2022-12-23T13:11:09.184Z,95931.53
2022-12-23T13:13:49.262Z,95934.94
2022-12-23T13:17:02.350Z,95925.56
2022-12-23T13:19:46.829Z,95918.75
2022-12-23T13:22:17.462Z,95910.25
2022-12-23T13:24:53.004Z,95917.06
2022-12-23T13:27:22.430Z,95907.69
2022-12-23T13:30:04.069Z,95911.91
2022-12-23T13:33:06.787Z,95905.94
2022-12-23T13:35:38.934Z,95905.13
2022-12-23T13:38:17.392Z,95900.88
2022-12-23T13:41:09.953Z,95892.38
2022-12-23T13:43:46.042Z,95888.97
2022-12-23T13:46:46.816Z,95886.41
2022-12-23T13:49:38.076Z,95881.28
2022-12-23T13:52:15.901Z,95873.66
2022-12-23T13:54:49.789Z,95876.19
2022-12-23T13:57:41.178Z,95865.91
2022-12-23T14:00:16.797Z,95865.09
2022-12-23T14:02:52.748Z,95857.44
2022-12-23T14:05:33.055Z,95854.88
2022-12-23T14:08:05.640Z,95853.16
2022-12-23T14:10:33.257Z,95863.41
2022-12-23T14:13:07.066Z,95869.38
2022-12-23T14:15:56.573Z,95858.31
2022-12-23T14:18:44.526Z,95848.94
2022-12-23T14:21:29.275Z,95852.31
2022-12-23T14:24:33.049Z,95853.16
2022-12-23T14:27:30.754Z,95842.13
2022-12-23T14:30:20.560Z,95836.97
2022-12-23T14:32:49.970Z,95836.13
2022-12-23T14:35:27.159Z,95836.13
2022-12-23T14:38:15.185Z,95827.59
2022-12-23T14:40:41.569Z,95811.41
2022-12-23T14:43:32.046Z,95819.06
2022-12-23T14:46:04.879Z,95819.09
2022-12-23T14:48:34.181Z,95804.63
2022-12-23T14:51:03.023Z,95799.53
2022-12-23T14:53:31.473Z,95807.22
2022-12-23T14:56:09.832Z,95806.38
2022-12-23T14:58:52.612Z,95811.47
2022-12-23T15:01:45.543Z,95807.22
2022-12-23T15:04:18.570Z,95804.69
2022-12-23T15:06:51.891Z,95797.91
2022-12-23T15:09:24.728Z,95798.75
2022-12-23T15:11:52.581Z,95802.13
2022-12-23T15:14:52.077Z,95805.56
2022-12-23T15:17:26.154Z,95794.50
2022-12-23T15:19:53.530Z,95792.75
2022-12-23T15:22:26.837Z,95787.69
2022-12-23T15:24:58.431Z,95790.25
2022-12-23T15:27:28.439Z,95791.94
2022-12-23T15:29:55.835Z,95791.97
2022-12-23T15:32:24.491Z,95794.53
2022-12-23T15:34:52.732Z,95800.50
2022-12-23T15:37:27.536Z,95787.69
2022-12-23T15:40:04.500Z,95789.41
2022-12-23T15:42:38.212Z,95793.66
2022-12-23T15:45:23.038Z,95782.59
2022-12-23T15:47:50.072Z,95782.59
2022-12-23T15:50:18.565Z,95772.41
2022-12-23T15:52:47.434Z,95767.31
2022-12-23T15:55:20.665Z,95779.19
2022-12-23T15:57:50.564Z,95766.47
2022-12-23T16:00:21.829Z,95757.94
2022-12-23T16:03:00.443Z,95760.47
2022-12-23T16:05:35.508Z,95757.91
2022-12-23T16:08:12.067Z,95762.97
2022-12-23T16:10:39.107Z,95747.66
2022-12-23T16:13:20.464Z,95756.13
2022-12-23T16:15:47.124Z,95750.13
2022-12-23T16:18:31.620Z,95746.69
2022-12-23T16:21:03.765Z,95742.28
2022-12-23T16:23:33.127Z,95736.22
2022-12-23T16:26:01.429Z,95733.72
2022-12-23T16:28:36.998Z,95720.03
2022-12-23T16:31:06.654Z,95719.13
2022-12-23T16:33:38.262Z,95722.44
2022-12-23T16:36:26.411Z,95718.97
2022-12-23T16:38:56.850Z,95718.16
2022-12-23T16:41:23.380Z,95711.34
2022-12-23T16:43:52.716Z,95713.81
2022-12-23T16:46:22.146Z,95709.53
2022-12-23T16:48:55.499Z,95715.44
2022-12-23T16:51:23.406Z,95720.44
2022-12-23T16:53:51.568Z,95705.91
2022-12-23T16:56:20.821Z,95706.75
2022-12-23T16:58:47.881Z,95707.59
2022-12-23T17:01:15.742Z,95698.16
2022-12-23T17:03:42.316Z,95697.28
2022-12-23T17:06:16.054Z,95691.31
2022-12-23T17:08:42.584Z,95692.13
2022-12-23T17:11:17.260Z,95689.59
2022-12-23T17:13:44.707Z,95688.75
2022-12-23T17:16:20.343Z,95679.38
2022-12-23T17:18:48.112Z,95693.81
2022-12-23T17:21:33.968Z,95687.00
2022-12-23T17:24:06.696Z,95696.31
2022-12-23T17:26:33.312Z,95686.94
2022-12-23T17:28:59.860Z,95684.34
2022-12-23T17:31:27.227Z,95688.56
2022-12-23T17:33:54.351Z,95686.88
2022-12-23T17:36:21.479Z,95696.16
2022-12-23T17:38:48.081Z,95680.81
2022-12-23T17:41:25.009Z,95688.44
2022-12-23T17:43:52.544Z,95689.22
2022-12-23T17:46:19.358Z,95683.09
2022-12-23T17:48:47.010Z,95672.81
2022-12-23T17:51:19.047Z,95680.47
2022-12-23T17:53:47.451Z,95688.94
2022-12-23T17:56:20.069Z,95675.22
2022-12-23T17:58:49.508Z,95676.88
2022-12-23T18:01:18.252Z,95682.00
2022-12-23T18:03:44.874Z,95681.91
2022-12-23T18:06:16.142Z,95679.34
2022-12-23T18:08:43.104Z,95683.56
2022-12-23T18:11:27.640Z,95676.78
2022-12-23T18:13:54.389Z,95676.69
2022-12-23T18:16:20.865Z,95669.81
2022-12-23T18:18:47.526Z,95669.81
2022-12-23T18:21:22.453Z,95668.94
2022-12-23T18:23:49.156Z,95666.38
2022-12-23T18:26:15.625Z,95665.53
2022-12-23T18:28:43.063Z,95665.47
2022-12-23T18:31:21.738Z,95664.59
2022-12-23T18:33:48.311Z,95663.75
2022-12-23T18:36:31.071Z,95657.78
2022-12-23T18:38:57.773Z,95656.91
2022-12-23T18:41:25.549Z,95673.16
2022-12-23T18:43:52.567Z,95674.84
2022-12-23T18:46:22.248Z,95663.69
2022-12-23T18:48:48.829Z,95672.28
2022-12-23T18:51:21.148Z,95673.06
2022-12-23T18:53:48.484Z,95668.81
2022-12-23T18:56:16.875Z,95663.75
2022-12-23T18:58:43.438Z,95674.00
2022-12-23T19:01:15.780Z,95670.53
2022-12-23T19:03:42.907Z,95667.88
2022-12-23T19:06:11.838Z,95676.56
2022-12-23T19:08:38.377Z,95666.31
2022-12-23T19:11:16.911Z,95685.03
2022-12-23T19:13:45.113Z,95682.38
2022-12-23T19:16:16.131Z,95679.84
2022-12-23T19:18:45.815Z,95690.94
2022-12-23T19:21:12.464Z,95694.28
2022-12-23T19:23:40.655Z,95696.91
2022-12-23T19:26:09.162Z,95697.75
2022-12-23T19:28:37.829Z,95697.69
2022-12-23T19:31:12.971Z,95704.50
2022-12-23T19:33:41.131Z,95697.56
2022-12-23T19:36:18.789Z,95696.78
2022-12-23T19:38:45.668Z,95704.50
2022-12-23T19:41:12.181Z,95707.75
2022-12-23T19:43:39.209Z,95718.03
2022-12-23T19:46:08.631Z,95714.63
2022-12-23T19:48:36.037Z,95723.16
2022-12-23T19:51:11.701Z,95706.84
2022-12-23T19:53:39.485Z,95719.66
2022-12-23T19:56:15.486Z,95731.66
2022-12-23T19:58:43.725Z,95733.38
2022-12-23T20:01:15.333Z,95734.31
2022-12-23T20:03:43.356Z,95724.00
2022-12-23T20:06:20.378Z,95717.19
2022-12-23T20:08:48.188Z,95716.34
2022-12-23T20:11:17.939Z,95714.78
2022-12-23T20:13:45.217Z,95728.34
2022-12-23T20:16:12.115Z,95737.69
2022-12-23T20:18:38.811Z,95746.25
2022-12-23T20:21:06.837Z,95740.44
2022-12-23T20:23:34.291Z,95744.63
2022-12-23T20:26:00.889Z,95748.88
2022-12-23T20:28:27.385Z,95750.59
2022-12-23T20:31:16.647Z,95760.84
2022-12-23T20:33:44.995Z,95759.25
2022-12-23T20:36:13.950Z,95756.72
2022-12-23T20:38:42.684Z,95760.19
2022-12-23T20:41:11.190Z,95766.22
2022-12-23T20:43:37.642Z,95771.38
2022-12-23T20:46:06.131Z,95777.25
2022-12-23T20:48:34.539Z,95783.31
2022-12-23T20:51:24.959Z,95794.44
2022-12-23T20:53:53.152Z,95790.91
2022-12-23T20:56:21.127Z,95796.16
2022-12-23T20:59:02.409Z,95794.50
2022-12-23T21:01:38.355Z,95782.56
2022-12-23T21:04:07.940Z,95780.03
2022-12-23T21:06:35.594Z,95782.47
2022-12-23T21:09:05.770Z,95796.13
2022-12-23T21:11:34.712Z,95791.81
2022-12-23T21:14:06.227Z,95788.47
2022-12-23T21:16:34.865Z,95780.78
2022-12-23T21:19:01.392Z,95792.81
2022-12-23T21:21:31.030Z,95799.66
2022-12-23T21:24:00.714Z,95804.84
2022-12-23T21:26:28.848Z,95812.53
2022-12-23T21:28:59.334Z,95818.53
2022-12-23T21:31:27.731Z,95823.81
2022-12-23T21:33:54.629Z,95827.28
2022-12-23T21:36:24.345Z,95832.38
2022-12-23T21:38:51.243Z,95840.09
2022-12-23T21:41:23.543Z,95846.97
2022-12-23T21:43:50.743Z,95836.69
2022-12-23T21:46:19.753Z,95854.69
2022-12-23T21:48:47.229Z,95882.91
2022-12-23T21:51:16.384Z,95877.78
2022-12-23T21:53:44.178Z,95867.56
2022-12-23T21:56:19.235Z,95876.94
2022-12-23T21:58:45.717Z,95891.44
2022-12-23T22:01:18.300Z,95889.69
2022-12-23T22:03:47.422Z,95888.81
2022-12-23T22:06:26.391Z,95887.94
2022-12-23T22:08:54.064Z,95871.75
2022-12-23T22:11:25.861Z,95873.53
2022-12-23T22:13:53.234Z,95879.53
2022-12-23T22:16:22.621Z,95886.31
2022-12-23T22:18:50.216Z,95878.66
2022-12-23T22:21:19.991Z,95888.91
2022-12-23T22:23:47.299Z,95883.88
2022-12-23T22:26:20.410Z,95885.53
2022-12-23T22:28:50.991Z,95889.75
2022-12-23T22:31:19.449Z,95896.53
2022-12-23T22:33:46.265Z,95890.59
2022-12-23T22:36:14.970Z,95900.91
2022-12-23T22:38:41.679Z,95917.13
2022-12-23T22:41:08.711Z,95919.59
2022-12-23T22:43:35.077Z,95923.00
2022-12-23T22:46:02.548Z,95929.03
2022-12-23T22:48:30.466Z,95927.38
2022-12-23T22:51:23.290Z,95943.56
2022-12-23T22:53:49.870Z,95941.09
2022-12-23T22:56:19.385Z,95951.31
2022-12-23T22:58:45.779Z,95953.84
2022-12-23T23:01:26.328Z,95956.47
2022-12-23T23:03:57.621Z,95970.06
2022-12-23T23:06:26.457Z,95964.16
2022-12-23T23:08:53.887Z,95965.09
2022-12-23T23:11:20.378Z,95970.16
2022-12-23T23:13:46.816Z,95965.91
2022-12-23T23:16:13.195Z,95967.59
2022-12-23T23:18:39.773Z,95962.47
2022-12-23T23:21:07.751Z,95972.78
2022-12-23T23:23:35.324Z,95981.34
2022-12-23T23:26:01.981Z,95985.66
2022-12-23T23:28:28.361Z,95985.63
2022-12-23T23:31:16.876Z,96006.09
2022-12-23T23:33:41.020Z,96002.72
2022-12-23T23:36:07.897Z,96011.25
2022-12-23T23:38:35.218Z,96012.97
2022-12-23T23:41:01.805Z,96015.53
2022-12-23T23:43:28.445Z,96014.72
2022-12-23T23:45:54.894Z,96018.09
2022-12-23T23:48:21.811Z,96029.19
2022-12-23T23:50:48.521Z,96036.94
2022-12-23T23:53:16.141Z,96039.50
2022-12-23T23:55:42.578Z,96046.34
2022-12-23T23:58:11.078Z,96046.34
